createdAt,value
2022-11-14T00:01:14.292Z,5.30
2022-11-14T00:03:59.696Z,5.80
2022-11-14T00:06:45.347Z,5.63
2022-11-14T00:09:30.827Z,4.60
2022-11-14T00:12:16.226Z,4.97
2022-11-14T00:15:01.866Z,5.35
2022-11-14T00:17:47.222Z,5.20
2022-11-14T00:20:33.278Z,4.47
2022-11-14T00:23:20.209Z,5.10
2022-11-14T00:26:05.621Z,4.72
2022-11-14T00:28:51.123Z,4.55
2022-11-14T00:31:36.415Z,4.80
2022-11-14T00:34:21.895Z,5.20
2022-11-14T00:37:07.393Z,4.53
2022-11-14T00:39:52.994Z,4.05
2022-11-14T00:42:38.452Z,4.32
2022-11-14T00:45:24.427Z,4.20
2022-11-14T00:48:10.044Z,4.70
2022-11-14T00:50:55.581Z,4.03
2022-11-14T00:53:40.896Z,4.60
2022-11-14T00:56:26.550Z,3.65
2022-11-14T00:59:12.012Z,5.13
2022-11-14T01:01:58.160Z,4.95
2022-11-14T01:04:43.754Z,5.05
2022-11-14T01:07:29.214Z,4.50
2022-11-14T01:10:14.929Z,5.32
2022-11-14T01:13:00.159Z,5.47
2022-11-14T01:15:47.777Z,4.90
2022-11-14T01:18:33.649Z,5.18
2022-11-14T01:21:18.798Z,5.28
2022-11-14T01:24:04.801Z,6.65
2022-11-14T01:26:49.947Z,4.80
2022-11-14T01:29:35.447Z,5.35
2022-11-14T01:32:20.936Z,6.07
2022-11-14T01:35:06.570Z,4.50
2022-11-14T01:37:51.903Z,4.75
2022-11-14T01:40:42.891Z,5.65
2022-11-14T01:43:29.969Z,6.40
2022-11-14T01:46:30.526Z,4.65
2022-11-14T01:49:23.515Z,4.53
2022-11-14T01:52:25.730Z,4.85
2022-11-14T01:55:11.285Z,4.55
2022-11-14T01:57:57.960Z,3.80
2022-11-14T02:00:44.399Z,5.03
2022-11-14T02:03:30.135Z,4.68
2022-11-14T02:06:19.787Z,3.83
2022-11-14T02:09:07.128Z,3.78
2022-11-14T02:11:54.924Z,2.83
2022-11-14T02:14:42.584Z,3.72
2022-11-14T02:17:30.062Z,3.60
2022-11-14T02:20:23.614Z,3.97
2022-11-14T02:23:11.270Z,3.55
2022-11-14T02:25:56.801Z,4.22
2022-11-14T02:28:42.049Z,3.50
2022-11-14T02:31:27.615Z,3.22
2022-11-14T02:34:12.979Z,4.00
2022-11-14T02:36:58.794Z,3.67
2022-11-14T02:39:44.027Z,3.17
2022-11-14T02:42:29.656Z,3.63
2022-11-14T02:45:15.361Z,3.83
2022-11-14T02:48:00.763Z,2.67
2022-11-14T02:50:49.164Z,2.30
2022-11-14T02:53:34.459Z,2.58
2022-11-14T02:56:20.022Z,3.00
2022-11-14T02:59:05.387Z,1.83
2022-11-14T03:01:50.815Z,2.42
2022-11-14T03:04:36.305Z,2.10
2022-11-14T03:07:22.119Z,2.03
2022-11-14T03:10:08.010Z,1.95
2022-11-14T03:12:57.580Z,2.28
2022-11-14T03:15:43.093Z,2.00
2022-11-14T03:18:28.944Z,2.42
2022-11-14T03:21:18.118Z,2.50
2022-11-14T03:24:03.900Z,1.92
2022-11-14T03:26:49.199Z,2.08
2022-11-14T03:29:34.610Z,2.40
2022-11-14T03:32:20.107Z,2.05
2022-11-14T03:35:06.050Z,2.35
2022-11-14T03:37:56.039Z,2.22
2022-11-14T03:40:42.584Z,2.38
2022-11-14T03:43:31.764Z,2.70
2022-11-14T03:46:17.000Z,3.25
2022-11-14T03:49:02.799Z,2.53
2022-11-14T03:51:48.201Z,3.55
2022-11-14T03:54:33.522Z,4.30
2022-11-14T03:57:18.841Z,3.10
2022-11-14T04:00:04.925Z,3.50
2022-11-14T04:02:50.462Z,3.63
2022-11-14T04:05:36.250Z,3.20
2022-11-14T04:08:21.701Z,4.43
2022-11-14T04:11:07.227Z,4.25
2022-11-14T04:13:52.414Z,4.38
2022-11-14T04:16:37.932Z,4.28
2022-11-14T04:19:23.328Z,4.95
2022-11-14T04:22:09.062Z,4.60
2022-11-14T04:24:54.563Z,5.13
2022-11-14T04:27:39.815Z,3.92
2022-11-14T04:30:25.366Z,3.60
2022-11-14T04:33:11.514Z,4.75
2022-11-14T04:35:56.820Z,5.18
2022-11-14T04:38:42.338Z,4.13
2022-11-14T04:41:27.687Z,4.50
2022-11-14T04:44:13.062Z,4.50
2022-11-14T04:46:58.612Z,5.07
2022-11-14T04:49:44.077Z,4.65
2022-11-14T04:52:29.556Z,4.97
2022-11-14T04:55:14.986Z,5.50
2022-11-14T04:58:00.464Z,5.78
2022-11-14T05:00:45.948Z,5.55
2022-11-14T05:03:31.522Z,6.03
2022-11-14T05:06:17.048Z,5.93
2022-11-14T05:09:02.595Z,6.10
2022-11-14T05:11:48.012Z,7.25
2022-11-14T05:14:33.929Z,6.20
2022-11-14T05:17:19.342Z,6.05
2022-11-14T05:20:05.287Z,7.97
2022-11-14T05:22:56.439Z,6.30
2022-11-14T05:25:42.022Z,6.10
2022-11-14T05:28:27.835Z,7.72
2022-11-14T05:31:18.100Z,6.68
2022-11-14T05:34:03.563Z,5.88
2022-11-14T05:36:49.115Z,6.63
2022-11-14T05:39:34.646Z,6.07
2022-11-14T05:42:20.190Z,6.45
2022-11-14T05:45:06.293Z,6.70
2022-11-14T05:47:54.188Z,7.47
2022-11-14T05:50:39.660Z,7.50
2022-11-14T05:53:26.462Z,8.07
2022-11-14T05:56:13.128Z,7.43
2022-11-14T05:58:58.565Z,7.70
2022-11-14T06:01:43.865Z,8.45
2022-11-14T06:04:29.460Z,8.48
2022-11-14T06:07:19.746Z,9.15
2022-11-14T06:10:06.233Z,8.85
2022-11-14T06:12:51.778Z,8.65
2022-11-14T06:15:37.223Z,8.68
2022-11-14T06:18:22.555Z,8.73
2022-11-14T06:21:15.542Z,11.25
2022-11-14T06:24:01.473Z,9.38
2022-11-14T06:26:46.777Z,9.93
2022-11-14T06:29:35.457Z,9.10
2022-11-14T06:32:21.632Z,9.98
2022-11-14T06:35:08.493Z,9.82
2022-11-14T06:37:54.309Z,9.70
2022-11-14T06:40:39.576Z,11.60
2022-11-14T06:43:24.969Z,9.52
2022-11-14T06:46:12.769Z,11.57
2022-11-14T06:48:58.573Z,10.85
2022-11-14T06:51:43.733Z,12.02
2022-11-14T06:54:29.269Z,10.93
2022-11-14T06:57:14.575Z,10.25
2022-11-14T07:00:00.622Z,11.45
2022-11-14T07:02:47.126Z,10.60
2022-11-14T07:05:32.429Z,13.05
2022-11-14T07:08:20.985Z,11.25
2022-11-14T07:11:24.018Z,10.48
2022-11-14T07:14:09.543Z,9.98
2022-11-14T07:16:55.111Z,12.25
2022-11-14T07:19:40.423Z,12.10
2022-11-14T07:22:25.644Z,12.68
2022-11-14T07:25:11.206Z,11.27
2022-11-14T07:27:57.949Z,10.63
2022-11-14T07:30:43.233Z,14.00
2022-11-14T07:33:29.907Z,10.27
2022-11-14T07:36:16.354Z,13.25
2022-11-14T07:39:01.713Z,11.73
2022-11-14T07:41:47.283Z,11.77
2022-11-14T07:44:32.789Z,14.05
2022-11-14T07:47:18.500Z,13.48
2022-11-14T07:50:04.424Z,12.98
2022-11-14T07:52:54.105Z,11.63
2022-11-14T07:55:39.862Z,13.38
2022-11-14T07:58:25.221Z,11.35
2022-11-14T08:01:12.625Z,11.95
2022-11-14T08:03:58.097Z,11.63
2022-11-14T08:06:43.802Z,11.95
2022-11-14T08:09:29.278Z,11.63
2022-11-14T08:12:14.741Z,12.15
2022-11-14T08:15:00.523Z,13.80
2022-11-14T08:17:45.898Z,10.90
2022-11-14T08:20:31.116Z,12.23
2022-11-14T08:23:17.122Z,10.38
2022-11-14T08:26:02.302Z,9.70
2022-11-14T08:28:47.737Z,8.55
2022-11-14T08:31:33.310Z,10.07
2022-11-14T08:34:18.984Z,9.82
2022-11-14T08:37:04.490Z,11.60
2022-11-14T08:39:49.672Z,10.52
2022-11-14T08:42:35.385Z,9.32
2022-11-14T08:45:21.039Z,8.85
2022-11-14T08:48:06.637Z,9.65
2022-11-14T08:50:52.338Z,9.07
2022-11-14T08:53:37.551Z,7.97
2022-11-14T08:56:23.208Z,9.82
2022-11-14T08:59:08.359Z,9.98
2022-11-14T09:01:53.867Z,9.32
2022-11-14T09:04:39.404Z,9.20
2022-11-14T09:07:24.913Z,9.32
2022-11-14T09:10:10.638Z,8.98
2022-11-14T09:12:57.080Z,8.20
2022-11-14T09:15:43.325Z,10.73
2022-11-14T09:18:29.911Z,8.77
2022-11-14T09:21:15.888Z,10.48
2022-11-14T09:24:02.066Z,8.25
2022-11-14T09:26:54.967Z,9.45
2022-11-14T09:29:42.305Z,8.60
2022-11-14T09:32:27.691Z,8.77
2022-11-14T09:35:13.274Z,9.18
2022-11-14T09:38:11.966Z,9.15
2022-11-14T09:41:09.209Z,9.32
2022-11-14T09:44:20.949Z,10.00
2022-11-14T09:47:20.981Z,9.30
2022-11-14T09:50:28.885Z,9.10
2022-11-14T09:53:31.476Z,7.80
2022-11-14T09:56:24.824Z,7.50
2022-11-14T09:59:12.568Z,9.27
2022-11-14T10:02:50.702Z,7.18
2022-11-14T10:05:48.030Z,7.55
2022-11-14T10:08:39.642Z,7.95
2022-11-14T10:11:50.534Z,8.48
2022-11-14T10:14:35.877Z,7.22
2022-11-14T10:17:26.972Z,6.72
2022-11-14T10:20:32.964Z,6.10
2022-11-14T10:23:33.043Z,7.07
2022-11-14T10:26:31.410Z,7.88
2022-11-14T10:29:38.887Z,8.88
2022-11-14T10:32:52.391Z,7.18
2022-11-14T10:35:41.078Z,5.80
2022-11-14T10:38:34.547Z,6.88
2022-11-14T10:41:41.587Z,6.30
2022-11-14T10:44:57.274Z,6.43
2022-11-14T10:47:49.767Z,6.70
2022-11-14T10:50:53.233Z,6.85
2022-11-14T10:53:58.878Z,4.53
2022-11-14T10:56:53.204Z,5.72
2022-11-14T10:59:38.713Z,5.15
2022-11-14T11:02:24.189Z,4.55
2022-11-14T11:05:16.460Z,4.63
2022-11-14T11:08:41.948Z,4.50
2022-11-14T11:11:32.470Z,5.38
2022-11-14T11:14:19.526Z,5.78
2022-11-14T11:17:08.913Z,5.53
2022-11-14T11:19:54.472Z,4.90
2022-11-14T11:22:39.945Z,5.13
2022-11-14T11:25:28.157Z,4.80
2022-11-14T11:28:19.844Z,5.72
2022-11-14T11:31:07.755Z,4.88
2022-11-14T11:33:53.639Z,5.88
2022-11-14T11:36:49.496Z,5.38
2022-11-14T11:39:41.367Z,5.60
2022-11-14T11:43:12.318Z,6.40
2022-11-14T11:45:39.639Z,5.82
2022-11-14T11:48:39.136Z,5.22
2022-11-14T11:51:27.070Z,4.78
2022-11-14T11:54:22.860Z,5.05
2022-11-14T11:57:21.230Z,5.63
2022-11-14T12:00:21.253Z,5.15
2022-11-14T12:03:13.406Z,5.95
2022-11-14T12:06:29.820Z,4.97
2022-11-14T12:09:20.951Z,6.30
2022-11-14T12:12:23.455Z,5.47
2022-11-14T12:15:12.286Z,5.07
2022-11-14T12:18:15.926Z,4.78
2022-11-14T12:21:04.145Z,5.35
2022-11-14T12:24:19.873Z,4.47
2022-11-14T12:27:36.439Z,4.80
2022-11-14T12:30:24.268Z,5.45
2022-11-14T12:33:26.914Z,5.65
2022-11-14T12:36:13.293Z,5.60
2022-11-14T12:38:59.884Z,4.57
2022-11-14T12:41:45.429Z,6.00
2022-11-14T12:44:32.364Z,5.18
2022-11-14T12:47:23.457Z,5.55
2022-11-14T12:50:31.531Z,4.47
2022-11-14T12:53:37.900Z,5.43
2022-11-14T12:56:32.287Z,4.35
2022-11-14T12:59:33.661Z,5.40
2022-11-14T13:03:07.977Z,5.85
2022-11-14T13:06:16.504Z,4.78
2022-11-14T13:09:14.840Z,5.03
2022-11-14T13:12:43.855Z,4.03
2022-11-14T13:15:49.517Z,5.72
2022-11-14T13:18:54.545Z,5.30
2022-11-14T13:22:12.159Z,5.50
2022-11-14T13:25:00.472Z,5.53
2022-11-14T13:28:06.470Z,4.95
2022-11-14T13:31:16.634Z,4.65
2022-11-14T13:34:29.396Z,4.82
2022-11-14T13:37:26.240Z,5.03
2022-11-14T13:40:19.680Z,4.65
2022-11-14T13:43:12.824Z,4.97
2022-11-14T13:46:24.430Z,4.70
2022-11-14T13:49:48.450Z,4.60
2022-11-14T13:52:39.865Z,4.93
2022-11-14T13:55:49.887Z,5.88
2022-11-14T13:59:01.764Z,5.93
2022-11-14T14:02:02.420Z,5.25
2022-11-14T14:05:15.071Z,5.82
2022-11-14T14:08:10.576Z,5.90
2022-11-14T14:11:23.481Z,5.13
2022-11-14T14:14:36.814Z,6.22
2022-11-14T14:17:44.011Z,5.18
2022-11-14T14:20:39.804Z,5.75
2022-11-14T14:23:49.005Z,5.32
2022-11-14T14:26:55.780Z,7.75
2022-11-14T14:30:05.792Z,5.00
2022-11-14T14:33:15.840Z,5.90
2022-11-14T14:36:01.082Z,4.60
2022-11-14T14:38:47.249Z,5.88
2022-11-14T14:41:33.017Z,5.85
2022-11-14T14:44:18.659Z,6.15
2022-11-14T14:47:42.155Z,4.50
2022-11-14T14:50:39.768Z,5.18
2022-11-14T14:53:36.532Z,4.28
2022-11-14T14:56:24.963Z,4.93
2022-11-14T14:59:18.358Z,3.88
2022-11-14T15:02:03.771Z,5.85
2022-11-14T15:04:49.523Z,5.53
2022-11-14T15:07:38.305Z,5.45
2022-11-14T15:10:26.397Z,6.28
2022-11-14T15:13:16.182Z,7.13
2022-11-14T15:16:04.236Z,5.85
2022-11-14T15:18:51.775Z,5.78
2022-11-14T15:21:36.969Z,6.07
2022-11-14T15:24:23.877Z,6.13
2022-11-14T15:27:15.005Z,5.72
2022-11-14T15:30:07.325Z,5.80
2022-11-14T15:32:57.999Z,6.40
2022-11-14T15:38:43.543Z,6.10
2022-11-14T15:41:33.550Z,5.82
2022-11-14T15:44:33.117Z,5.38
2022-11-14T15:47:28.410Z,5.72
2022-11-14T15:50:13.610Z,6.38
2022-11-14T15:53:05.056Z,6.60
2022-11-14T15:55:50.767Z,4.85
2022-11-14T15:58:35.900Z,5.05
2022-11-14T16:01:26.211Z,6.25
2022-11-14T16:07:01.173Z,5.60
2022-11-14T16:09:46.912Z,5.68
2022-11-14T16:12:32.380Z,5.03
2022-11-14T16:15:19.133Z,5.72
2022-11-14T16:18:05.954Z,5.63
2022-11-14T16:20:51.884Z,5.25
2022-11-14T16:23:39.358Z,5.85
2022-11-14T16:26:26.370Z,5.70
2022-11-14T16:29:12.247Z,5.55
2022-11-14T16:31:57.442Z,6.60
2022-11-14T16:34:43.090Z,6.68
2022-11-14T16:37:28.715Z,6.97
2022-11-14T16:40:19.476Z,5.15
2022-11-14T16:43:04.931Z,6.00
2022-11-14T16:45:50.534Z,6.03
2022-11-14T16:48:35.939Z,6.63
2022-11-14T16:51:47.190Z,6.53
2022-11-14T16:54:27.864Z,7.40
2022-11-14T16:57:13.335Z,7.55
2022-11-14T16:59:58.795Z,8.00
2022-11-14T17:02:45.638Z,8.98
2022-11-14T17:05:31.025Z,8.88
2022-11-14T17:08:17.009Z,8.32
2022-11-14T17:11:09.370Z,8.00
2022-11-14T17:13:56.636Z,8.68
2022-11-14T17:16:42.030Z,8.50
2022-11-14T17:19:29.668Z,8.75
2022-11-14T17:22:16.829Z,6.80
2022-11-14T17:25:02.039Z,7.28
2022-11-14T17:27:49.061Z,6.35
2022-11-14T17:30:34.644Z,8.20
2022-11-14T17:33:20.033Z,6.43
2022-11-14T17:36:10.444Z,7.80
2022-11-14T17:38:56.777Z,7.03
2022-11-14T17:41:41.795Z,7.28
2022-11-14T17:44:27.373Z,7.10
2022-11-14T17:47:13.078Z,6.68
2022-11-14T17:49:58.425Z,7.57
2022-11-14T17:52:43.940Z,8.98
2022-11-14T17:55:29.574Z,7.63
2022-11-14T17:58:15.147Z,7.75
2022-11-14T18:01:01.083Z,7.75
2022-11-14T18:03:46.781Z,7.63
2022-11-14T18:06:34.156Z,6.72
2022-11-14T18:09:20.278Z,9.63
2022-11-14T18:12:05.710Z,6.65
2022-11-14T18:14:51.783Z,5.82
2022-11-14T18:17:36.960Z,6.50
2022-11-14T18:20:22.602Z,6.25
2022-11-14T18:23:08.076Z,7.63
2022-11-14T18:25:53.509Z,6.63
2022-11-14T18:28:39.142Z,6.25
2022-11-14T18:31:25.353Z,6.45
2022-11-14T18:34:11.122Z,7.15
2022-11-14T18:36:56.696Z,5.97
2022-11-14T18:39:42.008Z,5.65
2022-11-14T18:42:27.481Z,6.38
2022-11-14T18:45:12.849Z,6.25
2022-11-14T18:47:58.389Z,7.03
2022-11-14T18:50:44.047Z,6.10
2022-11-14T18:53:34.093Z,6.78
2022-11-14T18:59:06.785Z,6.00
2022-11-14T19:01:52.201Z,6.15
2022-11-14T19:04:37.679Z,6.45
2022-11-14T19:07:23.748Z,6.05
2022-11-14T19:10:09.773Z,6.65
2022-11-14T19:12:55.299Z,6.90
2022-11-14T19:15:42.562Z,6.85
2022-11-14T19:18:27.905Z,6.95
2022-11-14T19:21:13.534Z,6.97
2022-11-14T19:24:01.784Z,7.45
2022-11-14T19:26:47.546Z,7.22
2022-11-14T19:29:32.952Z,6.90
2022-11-14T19:32:18.408Z,7.50
2022-11-14T19:35:04.538Z,7.10
2022-11-14T19:37:49.989Z,6.65
2022-11-14T19:40:37.904Z,7.72
2022-11-14T19:43:25.520Z,7.10
2022-11-14T19:46:11.472Z,7.22
2022-11-14T19:49:01.112Z,7.53
2022-11-14T19:51:46.502Z,9.73
2022-11-14T19:54:31.969Z,7.88
2022-11-14T19:57:17.345Z,8.45
2022-11-14T20:00:03.613Z,7.53
2022-11-14T20:02:48.748Z,7.03
2022-11-14T20:05:34.206Z,9.02
2022-11-14T20:08:19.623Z,7.10
2022-11-14T20:11:06.464Z,6.75
2022-11-14T20:13:51.855Z,6.65
2022-11-14T20:16:38.002Z,7.20
2022-11-14T20:19:23.619Z,7.90
2022-11-14T20:22:10.315Z,5.95
2022-11-14T20:24:55.700Z,7.45
2022-11-14T20:27:41.248Z,8.55
2022-11-14T20:30:26.769Z,6.97
2022-11-14T20:33:13.497Z,6.60
2022-11-14T20:36:03.671Z,7.32
2022-11-14T20:38:50.293Z,9.50
2022-11-14T20:41:35.580Z,10.20
2022-11-14T20:44:23.741Z,11.23
2022-11-14T20:47:11.207Z,9.88
2022-11-14T20:49:56.979Z,9.60
2022-11-14T20:52:42.574Z,11.00
2022-11-14T20:55:28.175Z,9.23
2022-11-14T20:58:13.570Z,9.27
2022-11-14T21:00:59.160Z,10.05
2022-11-14T21:03:44.300Z,9.52
2022-11-14T21:06:29.842Z,10.68
2022-11-14T21:09:15.654Z,9.27
2022-11-14T21:12:01.179Z,9.48
2022-11-14T21:14:46.842Z,7.97
2022-11-14T21:17:32.331Z,8.27
2022-11-14T21:20:17.924Z,9.38
2022-11-14T21:23:03.413Z,7.90
2022-11-14T21:25:48.919Z,7.57
2022-11-14T21:28:38.337Z,7.45
2022-11-14T21:31:25.250Z,7.32
2022-11-14T21:34:15.814Z,8.55
2022-11-14T21:37:01.796Z,7.80
2022-11-14T21:39:48.869Z,9.45
2022-11-14T21:42:34.382Z,9.43
2022-11-14T21:45:19.937Z,8.35
2022-11-14T21:48:05.613Z,8.90
2022-11-14T21:50:51.309Z,9.02
2022-11-14T21:53:37.408Z,9.23
2022-11-14T21:56:27.730Z,9.13
2022-11-14T21:59:16.609Z,10.10
2022-11-14T22:02:20.995Z,10.65
2022-11-14T22:05:06.761Z,12.18
2022-11-14T22:07:52.368Z,10.02
2022-11-14T22:10:37.862Z,8.57
2022-11-14T22:13:23.376Z,8.85
2022-11-14T22:16:11.217Z,8.70
2022-11-14T22:19:02.043Z,9.13
2022-11-14T22:21:50.624Z,8.52
2022-11-14T22:24:36.142Z,7.72
2022-11-14T22:27:21.629Z,8.07
2022-11-14T22:30:07.547Z,7.95
2022-11-14T22:32:53.148Z,7.97
2022-11-14T22:35:38.690Z,7.35
2022-11-14T22:38:24.197Z,8.98
2022-11-14T22:41:13.323Z,9.05
2022-11-14T22:43:59.273Z,8.38
2022-11-14T22:46:44.635Z,9.13
2022-11-14T22:49:30.122Z,8.27
2022-11-14T22:52:15.518Z,8.88
2022-11-14T22:55:00.961Z,8.57
2022-11-14T22:57:46.446Z,9.30
2022-11-14T23:00:31.878Z,8.52
2022-11-14T23:03:20.494Z,7.43
2022-11-14T23:06:11.340Z,9.30
2022-11-14T23:11:42.993Z,10.18
2022-11-14T23:14:28.288Z,9.63
2022-11-14T23:17:13.745Z,10.30
2022-11-14T23:19:59.118Z,10.05
2022-11-14T23:22:44.735Z,10.20
2022-11-14T23:25:30.376Z,9.18
2022-11-14T23:28:15.549Z,9.75
2022-11-14T23:31:02.145Z,9.02
2022-11-14T23:33:52.353Z,8.45
2022-11-14T23:36:37.601Z,9.85
2022-11-14T23:39:23.166Z,9.35
2022-11-14T23:42:08.795Z,7.97
2022-11-14T23:44:54.122Z,9.10
2022-11-14T23:47:39.766Z,7.85
2022-11-14T23:50:25.421Z,8.57
2022-11-14T23:53:11.678Z,8.68
2022-11-14T23:55:59.502Z,8.13
2022-11-14T23:58:44.744Z,7.75
